Portada
METAR-TAF:

METAR-TAF

Aeropuertos :

Concordia, Kansas, Estados Unidos

latitud: 39-33-05N, longitud: 097-39-02W, altitud: 453 m

Observación

El informe se hizo hace 12 minutos, a las 01:55 UTC
Viento 5 kt del norte
Temperatura 22°C
Humedad 46%
Presión 1019 hPa
Visibilidad: 16.1 km
Cielo despejado

METAR: KCNK 290155Z AUTO 36005KT 10SM CLR 22/10 A3009 RMK AO2 SLP179 T02220100

Hora: 21:07 (02:07 UTC)


TAF: falta

Observaciones y pronósticos meteorológicos de más de 4000 aeropuertos (mensajes METAR y TAF).

Los puntos amarillos y rojos representan las estaciones disponibles.

Ponga el ratón en el punto deseado para ver el nombre de la estación.

Haga clic para ver las observaciones y los pronósticos meteorológicos.

Para cambiar el mapa : haga clic en los botones verdes con una cruz de color negro para hacer un zoom, en el botón verde con un guión para alejar o en las flechas verdes para mapas adyacentes.


METAR-TAF: